sensor_id;sensor_type;location;lat;lon;timestamp;P1;durP1;ratioP1;P2;durP2;ratioP2
82401;SDS011;72040;55.842;37.384;2023-09-19T00:01:40;10.18;;;7.72;;
82401;SDS011;72040;55.842;37.384;2023-09-19T00:04:09;8.75;;;6.45;;
82401;SDS011;72040;55.842;37.384;2023-09-19T00:06:36;9.70;;;7.15;;
82401;SDS011;72040;55.842;37.384;2023-09-19T00:09:03;10.88;;;9.35;;
82401;SDS011;72040;55.842;37.384;2023-09-19T00:11:29;9.38;;;7.40;;
82401;SDS011;72040;55.842;37.384;2023-09-19T00:13:54;10.77;;;7.05;;
82401;SDS011;72040;55.842;37.384;2023-09-19T00:16:20;10.23;;;8.07;;
82401;SDS011;72040;55.842;37.384;2023-09-19T00:18:46;13.23;;;8.50;;
82401;SDS011;72040;55.842;37.384;2023-09-19T00:21:14;10.60;;;8.50;;
82401;SDS011;72040;55.842;37.384;2023-09-19T00:23:40;13.23;;;7.32;;
82401;SDS011;72040;55.842;37.384;2023-09-19T00:26:07;11.13;;;7.05;;
82401;SDS011;72040;55.842;37.384;2023-09-19T00:28:32;10.20;;;7.63;;
82401;SDS011;72040;55.842;37.384;2023-09-19T00:31:00;13.35;;;6.97;;
82401;SDS011;72040;55.842;37.384;2023-09-19T00:33:27;11.45;;;8.68;;
82401;SDS011;72040;55.842;37.384;2023-09-19T00:35:56;12.05;;;9.43;;
82401;SDS011;72040;55.842;37.384;2023-09-19T00:38:23;9.77;;;7.10;;
82401;SDS011;72040;55.842;37.384;2023-09-19T00:40:53;9.15;;;6.72;;
82401;SDS011;72040;55.842;37.384;2023-09-19T00:43:19;10.77;;;7.70;;
82401;SDS011;72040;55.842;37.384;2023-09-19T00:45:47;11.43;;;7.22;;
82401;SDS011;72040;55.842;37.384;2023-09-19T00:48:15;10.23;;;7.40;;
82401;SDS011;72040;55.842;37.384;2023-09-19T00:50:41;8.98;;;6.93;;
82401;SDS011;72040;55.842;37.384;2023-09-19T00:53:08;10.82;;;7.18;;
82401;SDS011;72040;55.842;37.384;2023-09-19T00:55:35;11.20;;;7.47;;
82401;SDS011;72040;55.842;37.384;2023-09-19T00:58:03;13.73;;;7.63;;
82401;SDS011;72040;55.842;37.384;2023-09-19T01:00:31;13.90;;;8.20;;
82401;SDS011;72040;55.842;37.384;2023-09-19T01:02:59;13.13;;;8.20;;
82401;SDS011;72040;55.842;37.384;2023-09-19T01:05:29;12.68;;;7.20;;
82401;SDS011;72040;55.842;37.384;2023-09-19T01:07:57;14.85;;;9.65;;
82401;SDS011;72040;55.842;37.384;2023-09-19T01:10:24;18.20;;;10.00;;
82401;SDS011;72040;55.842;37.384;2023-09-19T01:15:44;14.15;;;9.15;;
82401;SDS011;72040;55.842;37.384;2023-09-19T01:29:01;10.48;;;7.78;;
82401;SDS011;72040;55.842;37.384;2023-09-19T01:34:43;10.32;;;7.22;;
82401;SDS011;72040;55.842;37.384;2023-09-19T01:37:11;11.60;;;7.97;;
82401;SDS011;72040;55.842;37.384;2023-09-19T01:39:37;10.20;;;7.65;;
82401;SDS011;72040;55.842;37.384;2023-09-19T01:42:14;13.32;;;8.45;;
82401;SDS011;72040;55.842;37.384;2023-09-19T01:47:31;13.40;;;8.25;;
82401;SDS011;72040;55.842;37.384;2023-09-19T01:52:39;12.02;;;8.88;;
82401;SDS011;72040;55.842;37.384;2023-09-19T01:55:11;11.60;;;10.40;;
82401;SDS011;72040;55.842;37.384;2023-09-19T01:58:41;12.38;;;9.20;;
82401;SDS011;72040;55.842;37.384;2023-09-19T02:00:52;9.85;;;8.20;;
82401;SDS011;72040;55.842;37.384;2023-09-19T02:03:21;10.23;;;8.95;;
82401;SDS011;72040;55.842;37.384;2023-09-19T02:05:53;11.50;;;10.32;;
82401;SDS011;72040;55.842;37.384;2023-09-19T02:08:20;10.52;;;7.20;;
82401;SDS011;72040;55.842;37.384;2023-09-19T02:10:49;10.32;;;6.35;;
82401;SDS011;72040;55.842;37.384;2023-09-19T02:15:45;9.52;;;6.55;;
82401;SDS011;72040;55.842;37.384;2023-09-19T02:18:13;9.40;;;6.50;;
82401;SDS011;72040;55.842;37.384;2023-09-19T02:20:40;11.10;;;7.40;;
82401;SDS011;72040;55.842;37.384;2023-09-19T02:23:07;11.75;;;7.13;;
82401;SDS011;72040;55.842;37.384;2023-09-19T02:25:33;11.57;;;7.53;;
82401;SDS011;72040;55.842;37.384;2023-09-19T02:27:59;12.13;;;7.43;;
82401;SDS011;72040;55.842;37.384;2023-09-19T02:30:26;11.48;;;7.72;;
82401;SDS011;72040;55.842;37.384;2023-09-19T02:32:52;11.35;;;6.93;;
82401;SDS011;72040;55.842;37.384;2023-09-19T02:35:18;12.10;;;7.35;;
82401;SDS011;72040;55.842;37.384;2023-09-19T02:37:46;10.85;;;8.63;;
82401;SDS011;72040;55.842;37.384;2023-09-19T02:40:14;11.00;;;7.50;;
82401;SDS011;72040;55.842;37.384;2023-09-19T02:42:55;12.23;;;7.38;;
82401;SDS011;72040;55.842;37.384;2023-09-19T02:45:21;10.05;;;7.75;;
82401;SDS011;72040;55.842;37.384;2023-09-19T02:47:49;11.27;;;7.38;;
82401;SDS011;72040;55.842;37.384;2023-09-19T02:50:16;8.25;;;6.50;;
82401;SDS011;72040;55.842;37.384;2023-09-19T02:52:43;9.77;;;7.10;;
82401;SDS011;72040;55.842;37.384;2023-09-19T02:55:12;11.32;;;7.40;;
82401;SDS011;72040;55.842;37.384;2023-09-19T02:57:40;9.13;;;7.00;;
82401;SDS011;72040;55.842;37.384;2023-09-19T03:00:08;11.75;;;6.53;;
82401;SDS011;72040;55.842;37.384;2023-09-19T03:02:38;11.75;;;7.10;;
82401;SDS011;72040;55.842;37.384;2023-09-19T03:05:06;11.32;;;6.68;;
82401;SDS011;72040;55.842;37.384;2023-09-19T03:07:33;9.32;;;7.28;;
82401;SDS011;72040;55.842;37.384;2023-09-19T03:09:59;9.45;;;7.43;;
82401;SDS011;72040;55.842;37.384;2023-09-19T03:12:26;11.32;;;7.25;;
82401;SDS011;72040;55.842;37.384;2023-09-19T03:14:52;10.60;;;7.47;;
82401;SDS011;72040;55.842;37.384;2023-09-19T03:17:19;11.10;;;7.22;;
82401;SDS011;72040;55.842;37.384;2023-09-19T03:19:45;10.38;;;7.28;;
82401;SDS011;72040;55.842;37.384;2023-09-19T03:22:12;12.00;;;7.15;;
82401;SDS011;72040;55.842;37.384;2023-09-19T03:24:38;9.27;;;6.75;;
82401;SDS011;72040;55.842;37.384;2023-09-19T03:27:04;9.50;;;7.10;;
82401;SDS011;72040;55.842;37.384;2023-09-19T03:29:30;10.43;;;6.30;;
82401;SDS011;72040;55.842;37.384;2023-09-19T03:31:56;11.93;;;7.68;;
82401;SDS011;72040;55.842;37.384;2023-09-19T03:34:22;11.48;;;8.32;;
82401;SDS011;72040;55.842;37.384;2023-09-19T03:36:48;8.52;;;7.10;;
82401;SDS011;72040;55.842;37.384;2023-09-19T03:39:15;11.38;;;8.52;;
82401;SDS011;72040;55.842;37.384;2023-09-19T03:41:41;10.35;;;6.60;;
82401;SDS011;72040;55.842;37.384;2023-09-19T03:44:07;11.90;;;7.70;;
82401;SDS011;72040;55.842;37.384;2023-09-19T03:46:32;12.77;;;6.95;;
82401;SDS011;72040;55.842;37.384;2023-09-19T03:49:00;10.77;;;6.90;;
82401;SDS011;72040;55.842;37.384;2023-09-19T03:51:26;9.13;;;7.45;;
82401;SDS011;72040;55.842;37.384;2023-09-19T03:53:52;9.38;;;6.88;;
82401;SDS011;72040;55.842;37.384;2023-09-19T03:56:18;10.48;;;7.25;;
82401;SDS011;72040;55.842;37.384;2023-09-19T03:58:43;10.95;;;7.40;;
82401;SDS011;72040;55.842;37.384;2023-09-19T04:01:09;9.55;;;7.05;;
82401;SDS011;72040;55.842;37.384;2023-09-19T04:03:35;12.40;;;7.68;;
82401;SDS011;72040;55.842;37.384;2023-09-19T04:06:15;7.47;;;6.05;;
82401;SDS011;72040;55.842;37.384;2023-09-19T04:08:41;9.57;;;6.55;;
82401;SDS011;72040;55.842;37.384;2023-09-19T04:11:07;8.55;;;6.28;;
82401;SDS011;72040;55.842;37.384;2023-09-19T04:13:33;8.43;;;5.38;;
82401;SDS011;72040;55.842;37.384;2023-09-19T04:15:58;9.65;;;6.72;;
82401;SDS011;72040;55.842;37.384;2023-09-19T04:18:25;8.68;;;5.88;;
82401;SDS011;72040;55.842;37.384;2023-09-19T04:20:51;9.07;;;6.25;;
82401;SDS011;72040;55.842;37.384;2023-09-19T04:23:17;11.88;;;6.25;;
82401;SDS011;72040;55.842;37.384;2023-09-19T04:25:43;10.13;;;5.13;;
82401;SDS011;72040;55.842;37.384;2023-09-19T04:28:08;11.88;;;6.57;;
82401;SDS011;72040;55.842;37.384;2023-09-19T04:30:36;11.10;;;7.68;;
82401;SDS011;72040;55.842;37.384;2023-09-19T04:33:03;10.82;;;8.60;;
82401;SDS011;72040;55.842;37.384;2023-09-19T04:35:30;12.43;;;8.35;;
82401;SDS011;72040;55.842;37.384;2023-09-19T04:37:57;11.80;;;8.35;;
82401;SDS011;72040;55.842;37.384;2023-09-19T04:40:23;11.52;;;9.05;;
82401;SDS011;72040;55.842;37.384;2023-09-19T04:42:55;10.57;;;7.20;;
82401;SDS011;72040;55.842;37.384;2023-09-19T04:45:25;9.80;;;6.95;;
82401;SDS011;72040;55.842;37.384;2023-09-19T04:47:52;8.20;;;6.60;;
82401;SDS011;72040;55.842;37.384;2023-09-19T04:50:18;11.07;;;7.05;;
82401;SDS011;72040;55.842;37.384;2023-09-19T04:52:44;9.82;;;7.35;;
82401;SDS011;72040;55.842;37.384;2023-09-19T04:55:11;9.63;;;8.60;;
82401;SDS011;72040;55.842;37.384;2023-09-19T04:57:42;12.45;;;7.18;;
82401;SDS011;72040;55.842;37.384;2023-09-19T05:00:10;9.35;;;6.80;;
82401;SDS011;72040;55.842;37.384;2023-09-19T05:02:52;7.93;;;6.30;;
82401;SDS011;72040;55.842;37.384;2023-09-19T05:05:21;34.80;;;17.50;;
82401;SDS011;72040;55.842;37.384;2023-09-19T05:07:48;96.15;;;39.25;;
82401;SDS011;72040;55.842;37.384;2023-09-19T05:10:14;50.42;;;22.83;;
82401;SDS011;72040;55.842;37.384;2023-09-19T05:12:40;33.33;;;16.83;;
82401;SDS011;72040;55.842;37.384;2023-09-19T05:15:06;27.52;;;15.70;;
82401;SDS011;72040;55.842;37.384;2023-09-19T05:17:33;38.70;;;20.27;;
82401;SDS011;72040;55.842;37.384;2023-09-19T05:19:59;33.67;;;17.38;;
82401;SDS011;72040;55.842;37.384;2023-09-19T05:22:46;31.08;;;18.40;;
82401;SDS011;72040;55.842;37.384;2023-09-19T05:25:12;29.02;;;16.27;;
82401;SDS011;72040;55.842;37.384;2023-09-19T05:27:43;24.63;;;15.70;;
82401;SDS011;72040;55.842;37.384;2023-09-19T05:30:09;24.92;;;15.05;;
82401;SDS011;72040;55.842;37.384;2023-09-19T05:32:35;23.58;;;14.50;;
82401;SDS011;72040;55.842;37.384;2023-09-19T05:35:00;19.55;;;14.70;;
82401;SDS011;72040;55.842;37.384;2023-09-19T05:37:26;18.77;;;14.60;;
82401;SDS011;72040;55.842;37.384;2023-09-19T05:39:52;18.80;;;15.30;;
82401;SDS011;72040;55.842;37.384;2023-09-19T05:42:19;22.33;;;15.38;;
82401;SDS011;72040;55.842;37.384;2023-09-19T05:44:45;24.92;;;17.73;;
82401;SDS011;72040;55.842;37.384;2023-09-19T05:47:10;21.83;;;15.20;;
82401;SDS011;72040;55.842;37.384;2023-09-19T05:49:36;20.55;;;16.85;;
82401;SDS011;72040;55.842;37.384;2023-09-19T05:52:06;19.38;;;15.32;;
82401;SDS011;72040;55.842;37.384;2023-09-19T05:54:32;20.17;;;16.25;;
82401;SDS011;72040;55.842;37.384;2023-09-19T05:57:00;19.75;;;15.05;;
82401;SDS011;72040;55.842;37.384;2023-09-19T05:59:27;20.77;;;15.15;;
82401;SDS011;72040;55.842;37.384;2023-09-19T06:01:53;19.52;;;14.02;;
82401;SDS011;72040;55.842;37.384;2023-09-19T06:04:18;24.17;;;16.73;;
82401;SDS011;72040;55.842;37.384;2023-09-19T06:06:45;19.63;;;14.80;;
82401;SDS011;72040;55.842;37.384;2023-09-19T06:09:12;19.45;;;15.45;;
82401;SDS011;72040;55.842;37.384;2023-09-19T06:11:37;18.70;;;13.95;;
82401;SDS011;72040;55.842;37.384;2023-09-19T06:14:03;23.13;;;14.23;;
82401;SDS011;72040;55.842;37.384;2023-09-19T06:16:29;22.00;;;15.02;;
82401;SDS011;72040;55.842;37.384;2023-09-19T06:18:57;20.58;;;15.35;;
82401;SDS011;72040;55.842;37.384;2023-09-19T06:21:25;19.15;;;14.48;;
82401;SDS011;72040;55.842;37.384;2023-09-19T06:23:52;18.35;;;16.08;;
82401;SDS011;72040;55.842;37.384;2023-09-19T06:26:18;20.70;;;13.55;;
82401;SDS011;72040;55.842;37.384;2023-09-19T06:28:44;22.05;;;14.07;;
82401;SDS011;72040;55.842;37.384;2023-09-19T06:31:10;17.77;;;14.13;;
82401;SDS011;72040;55.842;37.384;2023-09-19T06:33:36;19.15;;;13.68;;
82401;SDS011;72040;55.842;37.384;2023-09-19T06:36:06;22.73;;;13.50;;
82401;SDS011;72040;55.842;37.384;2023-09-19T06:38:33;24.35;;;14.50;;
82401;SDS011;72040;55.842;37.384;2023-09-19T06:41:01;21.38;;;14.23;;
82401;SDS011;72040;55.842;37.384;2023-09-19T06:43:30;23.63;;;14.25;;
82401;SDS011;72040;55.842;37.384;2023-09-19T06:45:56;21.23;;;14.57;;
82401;SDS011;72040;55.842;37.384;2023-09-19T06:48:22;19.00;;;14.55;;
82401;SDS011;72040;55.842;37.384;2023-09-19T06:50:50;21.35;;;15.70;;
82401;SDS011;72040;55.842;37.384;2023-09-19T06:53:16;21.17;;;14.73;;
82401;SDS011;72040;55.842;37.384;2023-09-19T06:55:43;21.40;;;13.95;;
82401;SDS011;72040;55.842;37.384;2023-09-19T06:58:09;23.67;;;15.15;;
82401;SDS011;72040;55.842;37.384;2023-09-19T07:00:36;19.52;;;14.48;;
82401;SDS011;72040;55.842;37.384;2023-09-19T07:07:56;27.20;;;17.25;;
82401;SDS011;72040;55.842;37.384;2023-09-19T07:10:29;22.70;;;16.13;;
82401;SDS011;72040;55.842;37.384;2023-09-19T07:15:23;21.58;;;16.02;;
82401;SDS011;72040;55.842;37.384;2023-09-19T07:17:54;20.88;;;14.20;;
82401;SDS011;72040;55.842;37.384;2023-09-19T07:20:21;23.90;;;15.40;;
82401;SDS011;72040;55.842;37.384;2023-09-19T07:22:55;26.15;;;16.27;;
82401;SDS011;72040;55.842;37.384;2023-09-19T07:25:20;26.40;;;15.77;;
82401;SDS011;72040;55.842;37.384;2023-09-19T07:27:46;22.40;;;14.95;;
82401;SDS011;72040;55.842;37.384;2023-09-19T07:30:12;22.88;;;14.85;;
82401;SDS011;72040;55.842;37.384;2023-09-19T07:32:38;24.45;;;17.23;;
82401;SDS011;72040;55.842;37.384;2023-09-19T07:35:04;22.80;;;16.08;;
82401;SDS011;72040;55.842;37.384;2023-09-19T07:37:34;22.42;;;13.77;;
82401;SDS011;72040;55.842;37.384;2023-09-19T07:40:00;26.33;;;16.02;;
82401;SDS011;72040;55.842;37.384;2023-09-19T07:42:35;23.90;;;14.40;;
82401;SDS011;72040;55.842;37.384;2023-09-19T07:45:04;18.02;;;14.07;;
82401;SDS011;72040;55.842;37.384;2023-09-19T07:47:30;20.67;;;15.35;;
82401;SDS011;72040;55.842;37.384;2023-09-19T07:49:58;20.10;;;16.15;;
82401;SDS011;72040;55.842;37.384;2023-09-19T07:52:26;25.15;;;15.00;;
82401;SDS011;72040;55.842;37.384;2023-09-19T07:54:53;20.15;;;13.63;;
82401;SDS011;72040;55.842;37.384;2023-09-19T07:57:19;23.67;;;15.93;;
82401;SDS011;72040;55.842;37.384;2023-09-19T07:59:46;23.77;;;15.50;;
82401;SDS011;72040;55.842;37.384;2023-09-19T08:02:12;22.15;;;16.08;;
82401;SDS011;72040;55.842;37.384;2023-09-19T08:04:44;24.42;;;15.63;;
82401;SDS011;72040;55.842;37.384;2023-09-19T08:07:14;24.65;;;17.13;;
82401;SDS011;72040;55.842;37.384;2023-09-19T08:09:40;26.60;;;17.05;;
82401;SDS011;72040;55.842;37.384;2023-09-19T08:12:07;30.05;;;16.90;;
82401;SDS011;72040;55.842;37.384;2023-09-19T08:14:36;23.08;;;14.52;;
82401;SDS011;72040;55.842;37.384;2023-09-19T08:17:03;21.92;;;16.08;;
82401;SDS011;72040;55.842;37.384;2023-09-19T08:19:30;30.73;;;16.77;;
82401;SDS011;72040;55.842;37.384;2023-09-19T08:21:57;23.10;;;15.68;;
82401;SDS011;72040;55.842;37.384;2023-09-19T08:24:27;19.60;;;15.38;;
82401;SDS011;72040;55.842;37.384;2023-09-19T08:26:54;24.48;;;16.63;;
82401;SDS011;72040;55.842;37.384;2023-09-19T08:29:21;25.40;;;15.95;;
82401;SDS011;72040;55.842;37.384;2023-09-19T08:31:54;22.48;;;17.08;;
82401;SDS011;72040;55.842;37.384;2023-09-19T08:34:22;25.42;;;16.35;;
82401;SDS011;72040;55.842;37.384;2023-09-19T08:36:50;22.95;;;15.85;;
82401;SDS011;72040;55.842;37.384;2023-09-19T08:39:17;25.38;;;16.92;;
82401;SDS011;72040;55.842;37.384;2023-09-19T08:41:44;21.90;;;14.85;;
82401;SDS011;72040;55.842;37.384;2023-09-19T08:44:09;28.75;;;15.18;;
82401;SDS011;72040;55.842;37.384;2023-09-19T08:46:35;23.83;;;15.68;;
82401;SDS011;72040;55.842;37.384;2023-09-19T08:49:04;27.48;;;15.88;;
82401;SDS011;72040;55.842;37.384;2023-09-19T08:51:44;21.90;;;15.13;;
82401;SDS011;72040;55.842;37.384;2023-09-19T08:54:24;24.20;;;16.25;;
82401;SDS011;72040;55.842;37.384;2023-09-19T08:56:54;25.48;;;18.40;;
82401;SDS011;72040;55.842;37.384;2023-09-19T08:59:22;23.73;;;16.20;;
82401;SDS011;72040;55.842;37.384;2023-09-19T09:01:55;23.52;;;16.20;;
82401;SDS011;72040;55.842;37.384;2023-09-19T09:04:22;24.42;;;16.88;;
82401;SDS011;72040;55.842;37.384;2023-09-19T09:06:48;29.10;;;17.90;;
82401;SDS011;72040;55.842;37.384;2023-09-19T09:09:18;21.70;;;14.90;;
82401;SDS011;72040;55.842;37.384;2023-09-19T09:11:43;27.55;;;17.35;;
82401;SDS011;72040;55.842;37.384;2023-09-19T09:14:10;25.70;;;17.42;;
82401;SDS011;72040;55.842;37.384;2023-09-19T09:16:36;27.30;;;20.73;;
82401;SDS011;72040;55.842;37.384;2023-09-19T09:19:02;24.85;;;16.33;;
82401;SDS011;72040;55.842;37.384;2023-09-19T09:21:27;24.15;;;16.27;;
82401;SDS011;72040;55.842;37.384;2023-09-19T09:23:54;36.08;;;16.10;;
82401;SDS011;72040;55.842;37.384;2023-09-19T09:29:04;27.30;;;16.42;;
82401;SDS011;72040;55.842;37.384;2023-09-19T09:31:29;29.92;;;16.73;;
82401;SDS011;72040;55.842;37.384;2023-09-19T09:33:56;23.65;;;15.43;;
82401;SDS011;72040;55.842;37.384;2023-09-19T09:36:35;28.40;;;16.85;;
82401;SDS011;72040;55.842;37.384;2023-09-19T09:39:06;25.85;;;15.68;;
82401;SDS011;72040;55.842;37.384;2023-09-19T09:41:50;27.17;;;17.35;;
82401;SDS011;72040;55.842;37.384;2023-09-19T09:44:17;29.73;;;16.35;;
82401;SDS011;72040;55.842;37.384;2023-09-19T09:46:45;29.23;;;16.35;;
82401;SDS011;72040;55.842;37.384;2023-09-19T09:49:24;29.58;;;16.77;;
82401;SDS011;72040;55.842;37.384;2023-09-19T09:51:57;26.02;;;17.80;;
82401;SDS011;72040;55.842;37.384;2023-09-19T09:54:33;23.02;;;15.88;;
82401;SDS011;72040;55.842;37.384;2023-09-19T09:57:04;25.05;;;16.80;;
82401;SDS011;72040;55.842;37.384;2023-09-19T09:59:55;28.73;;;17.17;;
82401;SDS011;72040;55.842;37.384;2023-09-19T10:02:25;28.27;;;16.17;;
82401;SDS011;72040;55.842;37.384;2023-09-19T10:04:58;26.30;;;17.13;;
82401;SDS011;72040;55.842;37.384;2023-09-19T10:07:39;22.17;;;17.38;;
82401;SDS011;72040;55.842;37.384;2023-09-19T10:10:14;25.55;;;17.20;;
82401;SDS011;72040;55.842;37.384;2023-09-19T10:12:46;27.92;;;17.13;;
82401;SDS011;72040;55.842;37.384;2023-09-19T10:15:14;26.98;;;19.60;;
82401;SDS011;72040;55.842;37.384;2023-09-19T10:17:42;25.70;;;18.00;;
82401;SDS011;72040;55.842;37.384;2023-09-19T10:20:10;32.55;;;18.10;;
82401;SDS011;72040;55.842;37.384;2023-09-19T10:22:49;27.02;;;20.38;;
82401;SDS011;72040;55.842;37.384;2023-09-19T10:25:24;21.90;;;14.77;;
82401;SDS011;72040;55.842;37.384;2023-09-19T10:30:18;22.20;;;14.40;;
82401;SDS011;72040;55.842;37.384;2023-09-19T10:32:45;19.05;;;14.70;;
82401;SDS011;72040;55.842;37.384;2023-09-19T10:35:13;21.92;;;14.43;;
82401;SDS011;72040;55.842;37.384;2023-09-19T10:37:40;24.83;;;16.13;;
82401;SDS011;72040;55.842;37.384;2023-09-19T10:40:07;26.55;;;14.85;;
82401;SDS011;72040;55.842;37.384;2023-09-19T10:42:34;24.40;;;14.63;;
82401;SDS011;72040;55.842;37.384;2023-09-19T10:45:03;19.60;;;15.07;;
82401;SDS011;72040;55.842;37.384;2023-09-19T10:47:32;20.08;;;14.25;;
82401;SDS011;72040;55.842;37.384;2023-09-19T10:50:00;24.98;;;15.55;;
82401;SDS011;72040;55.842;37.384;2023-09-19T10:52:26;20.95;;;14.15;;
82401;SDS011;72040;55.842;37.384;2023-09-19T10:54:53;19.42;;;13.73;;
82401;SDS011;72040;55.842;37.384;2023-09-19T10:57:21;19.38;;;14.07;;
82401;SDS011;72040;55.842;37.384;2023-09-19T11:00:10;25.17;;;15.63;;
82401;SDS011;72040;55.842;37.384;2023-09-19T11:06:01;22.88;;;14.77;;
82401;SDS011;72040;55.842;37.384;2023-09-19T11:20:19;22.83;;;15.13;;
82401;SDS011;72040;55.842;37.384;2023-09-19T11:30:35;27.38;;;16.13;;
82401;SDS011;72040;55.842;37.384;2023-09-19T11:36:13;24.38;;;17.23;;
82401;SDS011;72040;55.842;37.384;2023-09-19T11:49:18;22.35;;;16.25;;
82401;SDS011;72040;55.842;37.384;2023-09-19T11:51:52;23.23;;;16.42;;
82401;SDS011;72040;55.842;37.384;2023-09-19T11:54:17;26.40;;;15.18;;
82401;SDS011;72040;55.842;37.384;2023-09-19T11:56:53;25.08;;;16.38;;
82401;SDS011;72040;55.842;37.384;2023-09-19T11:59:21;21.38;;;14.70;;
82401;SDS011;72040;55.842;37.384;2023-09-19T12:01:56;26.95;;;15.68;;
82401;SDS011;72040;55.842;37.384;2023-09-19T12:04:33;33.55;;;18.42;;
82401;SDS011;72040;55.842;37.384;2023-09-19T12:07:07;64.95;;;24.50;;
82401;SDS011;72040;55.842;37.384;2023-09-19T12:09:51;133.95;;;44.20;;
82401;SDS011;72040;55.842;37.384;2023-09-19T12:12:30;126.80;;;42.83;;
82401;SDS011;72040;55.842;37.384;2023-09-19T12:14:58;130.23;;;45.95;;
82401;SDS011;72040;55.842;37.384;2023-09-19T12:17:35;113.82;;;42.05;;
82401;SDS011;72040;55.842;37.384;2023-09-19T12:20:02;74.53;;;29.88;;
82401;SDS011;72040;55.842;37.384;2023-09-19T12:22:42;70.75;;;27.42;;
82401;SDS011;72040;55.842;37.384;2023-09-19T12:25:09;78.93;;;30.90;;
82401;SDS011;72040;55.842;37.384;2023-09-19T12:30:13;48.08;;;23.13;;
82401;SDS011;72040;55.842;37.384;2023-09-19T12:32:48;82.57;;;30.67;;
82401;SDS011;72040;55.842;37.384;2023-09-19T12:35:31;53.40;;;22.02;;
82401;SDS011;72040;55.842;37.384;2023-09-19T12:38:00;41.03;;;20.65;;
82401;SDS011;72040;55.842;37.384;2023-09-19T12:40:26;47.80;;;21.67;;
82401;SDS011;72040;55.842;37.384;2023-09-19T12:42:56;32.35;;;18.27;;
82401;SDS011;72040;55.842;37.384;2023-09-19T12:45:23;46.72;;;22.27;;
82401;SDS011;72040;55.842;37.384;2023-09-19T12:51:00;35.45;;;18.17;;
82401;SDS011;72040;55.842;37.384;2023-09-19T12:53:39;33.38;;;19.38;;
82401;SDS011;72040;55.842;37.384;2023-09-19T12:56:08;30.42;;;16.65;;
82401;SDS011;72040;55.842;37.384;2023-09-19T12:58:54;27.15;;;16.48;;
82401;SDS011;72040;55.842;37.384;2023-09-19T13:01:25;34.40;;;16.13;;
82401;SDS011;72040;55.842;37.384;2023-09-19T13:04:13;38.40;;;17.30;;
82401;SDS011;72040;55.842;37.384;2023-09-19T13:06:43;40.50;;;18.33;;
82401;SDS011;72040;55.842;37.384;2023-09-19T13:09:10;37.45;;;18.55;;
82401;SDS011;72040;55.842;37.384;2023-09-19T13:11:37;34.80;;;16.05;;
82401;SDS011;72040;55.842;37.384;2023-09-19T13:19:39;33.78;;;16.45;;
82401;SDS011;72040;55.842;37.384;2023-09-19T13:25:08;29.48;;;15.63;;
82401;SDS011;72040;55.842;37.384;2023-09-19T13:27:40;29.73;;;15.73;;
82401;SDS011;72040;55.842;37.384;2023-09-19T13:30:06;29.48;;;14.60;;
82401;SDS011;72040;55.842;37.384;2023-09-19T13:32:33;26.73;;;14.20;;
82401;SDS011;72040;55.842;37.384;2023-09-19T13:34:59;34.97;;;15.13;;
82401;SDS011;72040;55.842;37.384;2023-09-19T13:37:25;30.52;;;15.07;;
82401;SDS011;72040;55.842;37.384;2023-09-19T13:39:52;29.00;;;14.23;;
82401;SDS011;72040;55.842;37.384;2023-09-19T13:42:19;34.30;;;17.02;;
82401;SDS011;72040;55.842;37.384;2023-09-19T13:44:46;26.23;;;13.10;;
82401;SDS011;72040;55.842;37.384;2023-09-19T13:47:12;20.67;;;12.25;;
82401;SDS011;72040;55.842;37.384;2023-09-19T13:49:40;24.30;;;12.57;;
82401;SDS011;72040;55.842;37.384;2023-09-19T13:52:06;22.58;;;12.25;;
82401;SDS011;72040;55.842;37.384;2023-09-19T13:54:32;24.40;;;13.20;;
82401;SDS011;72040;55.842;37.384;2023-09-19T13:56:58;21.52;;;11.98;;
82401;SDS011;72040;55.842;37.384;2023-09-19T13:59:24;22.52;;;15.20;;
82401;SDS011;72040;55.842;37.384;2023-09-19T14:01:49;20.88;;;12.00;;
82401;SDS011;72040;55.842;37.384;2023-09-19T14:04:19;18.33;;;11.82;;
82401;SDS011;72040;55.842;37.384;2023-09-19T14:06:47;17.40;;;11.63;;
82401;SDS011;72040;55.842;37.384;2023-09-19T14:09:13;18.10;;;10.30;;
82401;SDS011;72040;55.842;37.384;2023-09-19T14:11:39;16.73;;;10.27;;
82401;SDS011;72040;55.842;37.384;2023-09-19T14:14:05;17.63;;;11.43;;
82401;SDS011;72040;55.842;37.384;2023-09-19T14:16:31;13.30;;;8.82;;
82401;SDS011;72040;55.842;37.384;2023-09-19T14:18:57;18.20;;;9.02;;
82401;SDS011;72040;55.842;37.384;2023-09-19T14:21:24;15.27;;;8.88;;
82401;SDS011;72040;55.842;37.384;2023-09-19T14:23:50;14.55;;;8.90;;
82401;SDS011;72040;55.842;37.384;2023-09-19T14:26:16;12.43;;;8.57;;
82401;SDS011;72040;55.842;37.384;2023-09-19T14:28:41;12.57;;;8.68;;
82401;SDS011;72040;55.842;37.384;2023-09-19T14:31:09;16.35;;;10.45;;
82401;SDS011;72040;55.842;37.384;2023-09-19T14:33:37;14.50;;;8.25;;
82401;SDS011;72040;55.842;37.384;2023-09-19T14:36:09;13.43;;;8.52;;
82401;SDS011;72040;55.842;37.384;2023-09-19T14:38:36;13.38;;;8.55;;
82401;SDS011;72040;55.842;37.384;2023-09-19T14:41:04;12.07;;;7.88;;
82401;SDS011;72040;55.842;37.384;2023-09-19T14:43:31;15.48;;;9.32;;
82401;SDS011;72040;55.842;37.384;2023-09-19T14:46:04;14.25;;;8.65;;
82401;SDS011;72040;55.842;37.384;2023-09-19T14:48:33;11.35;;;8.73;;
82401;SDS011;72040;55.842;37.384;2023-09-19T14:51:06;13.38;;;8.45;;
82401;SDS011;72040;55.842;37.384;2023-09-19T14:53:37;11.23;;;7.85;;
82401;SDS011;72040;55.842;37.384;2023-09-19T14:56:04;13.40;;;8.38;;
82401;SDS011;72040;55.842;37.384;2023-09-19T14:58:30;12.45;;;7.90;;
82401;SDS011;72040;55.842;37.384;2023-09-19T15:01:06;11.35;;;7.57;;
82401;SDS011;72040;55.842;37.384;2023-09-19T15:03:36;11.88;;;8.13;;
82401;SDS011;72040;55.842;37.384;2023-09-19T15:06:03;10.50;;;7.55;;
82401;SDS011;72040;55.842;37.384;2023-09-19T15:08:32;11.63;;;7.63;;
82401;SDS011;72040;55.842;37.384;2023-09-19T15:13:29;13.10;;;8.45;;
82401;SDS011;72040;55.842;37.384;2023-09-19T15:16:02;12.30;;;9.18;;
82401;SDS011;72040;55.842;37.384;2023-09-19T15:18:34;14.88;;;7.68;;
82401;SDS011;72040;55.842;37.384;2023-09-19T15:21:08;13.75;;;8.95;;
82401;SDS011;72040;55.842;37.384;2023-09-19T15:23:36;12.68;;;8.23;;
82401;SDS011;72040;55.842;37.384;2023-09-19T15:26:04;10.70;;;7.70;;
82401;SDS011;72040;55.842;37.384;2023-09-19T15:28:31;11.35;;;8.18;;
82401;SDS011;72040;55.842;37.384;2023-09-19T15:31:01;12.20;;;8.25;;
82401;SDS011;72040;55.842;37.384;2023-09-19T15:33:33;12.38;;;8.13;;
82401;SDS011;72040;55.842;37.384;2023-09-19T15:36:05;10.55;;;7.68;;
82401;SDS011;72040;55.842;37.384;2023-09-19T15:38:50;14.77;;;8.55;;
82401;SDS011;72040;55.842;37.384;2023-09-19T15:41:25;14.40;;;8.05;;
82401;SDS011;72040;55.842;37.384;2023-09-19T15:44:02;13.60;;;9.90;;
82401;SDS011;72040;55.842;37.384;2023-09-19T15:46:29;12.93;;;10.20;;
82401;SDS011;72040;55.842;37.384;2023-09-19T15:48:57;11.52;;;7.45;;
82401;SDS011;72040;55.842;37.384;2023-09-19T15:51:23;11.70;;;8.25;;
82401;SDS011;72040;55.842;37.384;2023-09-19T15:53:52;12.75;;;7.47;;
82401;SDS011;72040;55.842;37.384;2023-09-19T15:56:19;11.13;;;7.40;;